Time;durP1;ratioP1;P1;durP2;ratioP2;P2;SDS_P1;SDS_P2;PMS_P1;PMS_P2;Temp;Humidity;BMP_temperature;BMP_pressure;BME280_temperature;BME280_humidity;BME280_pressure;Samples;Min_cycle;Max_cycle;Signal;HPM_P1;HPM_P2
2022/10/28 00:00:08;;;;;;;9.30;6.00;;;;;;;10.65;95.02;97834.09;105155;1282;24337;-77
2022/10/28 00:03:01;;;;;;;9.50;5.90;;;;;;;10.66;95.02;97832.98;105217;1304;22588;-77
2022/10/28 00:05:35;;;;;;;7.80;5.80;;;;;;;10.63;95.01;97834.50;105162;1282;22480;-77
2022/10/28 00:08:06;;;;;;;9.80;6.40;;;;;;;10.59;94.74;97832.29;105204;1287;25897;-77
2022/10/28 00:10:37;;;;;;;11.30;7.00;;;;;;;10.52;94.66;97832.61;105151;1299;22474;-77
2022/10/28 00:13:08;;;;;;;8.10;6.10;;;;;;;10.50;94.90;97831.16;105229;1282;22463;-77
2022/10/28 00:15:39;;;;;;;8.40;6.10;;;;;;;10.53;95.32;97833.63;105138;1304;27175;-77
2022/10/28 00:18:11;;;;;;;8.60;6.10;;;;;;;10.53;95.00;97831.08;105218;1288;25339;-77
2022/10/28 00:20:42;;;;;;;8.50;5.20;;;;;;;10.45;94.83;97830.95;105214;1304;22466;-77
2022/10/28 00:23:13;;;;;;;10.50;6.00;;;;;;;10.43;95.40;97833.05;105267;1288;24263;-77
2022/10/28 00:25:44;;;;;;;9.10;6.40;;;;;;;10.49;95.67;97834.54;105182;1306;22783;-77
2022/10/28 00:28:15;;;;;;;9.40;6.20;;;;;;;10.48;95.57;97833.05;105237;1296;22470;-77
2022/10/28 00:30:46;;;;;;;8.70;6.00;;;;;;;10.52;95.92;97827.77;105217;1296;22472;-77
2022/10/28 00:33:17;;;;;;;11.60;5.80;;;;;;;10.52;95.84;97826.40;105206;1298;25924;-77
2022/10/28 00:35:56;;;;;;;10.30;6.30;;;;;;;10.54;95.93;97822.81;105179;1304;25679;-77
2022/10/28 00:38:30;;;;;;;8.60;5.70;;;;;;;10.51;95.76;97822.16;105193;1297;22486;-77
2022/10/28 00:41:01;;;;;;;9.20;6.40;;;;;;;10.48;95.70;97822.55;105274;1291;22594;-77
2022/10/28 00:43:44;;;;;;;8.10;5.60;;;;;;;10.44;95.74;97817.95;105191;1304;22504;-77
2022/10/28 00:46:24;;;;;;;6.30;5.20;;;;;;;10.41;95.82;97816.73;105178;1304;22463;-77
2022/10/28 00:49:00;;;;;;;10.30;6.30;;;;;;;10.38;95.88;97813.20;105225;1306;22513;-77
2022/10/28 00:51:33;;;;;;;8.90;6.00;;;;;;;10.37;95.96;97806.30;105177;1281;22462;-77
2022/10/28 00:54:06;;;;;;;8.70;6.20;;;;;;;10.33;95.80;97802.05;105215;1304;22484;-77
2022/10/28 00:56:42;;;;;;;9.80;6.50;;;;;;;10.34;96.29;97802.87;105146;1305;22782;-77
2022/10/28 00:59:27;;;;;;;10.30;5.40;;;;;;;10.38;96.29;97797.52;105170;1294;25926;-77
2022/10/28 01:01:58;;;;;;;7.10;5.40;;;;;;;10.42;96.27;97791.29;105209;1300;22464;-77
2022/10/28 01:04:30;;;;;;;7.00;4.90;;;;;;;10.47;96.55;97789.02;105238;1304;22525;-77
2022/10/28 01:07:02;;;;;;;9.70;5.50;;;;;;;10.54;96.81;97781.67;105153;1306;22525;-77
2022/10/28 01:09:33;;;;;;;7.90;5.20;;;;;;;10.66;97.13;97778.94;105206;1304;22500;-77
2022/10/28 01:12:12;;;;;;;8.60;5.40;;;;;;;10.78;97.14;97776.35;105193;1297;23721;-77
2022/10/28 01:14:59;;;;;;;7.40;5.20;;;;;;;10.85;96.95;97778.33;105181;1304;22435;-77
2022/10/28 01:17:47;;;;;;;8.40;5.80;;;;;;;10.88;96.49;97774.61;105069;1298;56812;-77
2022/10/28 01:20:53;;;;;;;7.70;5.40;;;;;;;10.80;96.08;97776.31;105123;1284;22481;-77
2022/10/28 01:23:33;;;;;;;8.10;6.00;;;;;;;10.81;96.73;97772.77;105117;1290;24241;-78
2022/10/28 01:26:33;;;;;;;7.50;4.70;;;;;;;10.88;96.84;97770.19;105082;1291;25378;-77
2022/10/28 01:29:54;;;;;;;6.40;5.10;;;;;;;10.92;96.93;97769.91;105113;1306;25372;-78
2022/10/28 01:32:33;;;;;;;7.50;4.70;;;;;;;10.91;96.71;97767.41;104941;1291;167541;-78
2022/10/28 01:35:14;;;;;;;8.30;5.00;;;;;;;10.88;96.67;97761.13;105121;1291;22558;-77
2022/10/28 01:37:53;;;;;;;7.30;5.00;;;;;;;10.98;96.98;97760.63;105084;1306;22478;-78
2022/10/28 01:40:34;;;;;;;8.10;5.80;;;;;;;10.94;96.44;97759.52;105113;1300;22483;-78
2022/10/28 01:43:12;;;;;;;9.20;5.20;;;;;;;10.85;96.31;97759.23;105123;1291;25271;-78
2022/10/28 01:45:50;;;;;;;6.80;5.00;;;;;;;10.82;96.49;97751.55;105063;1291;22527;-78
2022/10/28 01:48:30;;;;;;;7.00;4.50;;;;;;;10.77;96.55;97750.19;105130;1278;23746;-77
2022/10/28 01:51:05;;;;;;;8.20;5.70;;;;;;;10.71;96.62;97750.02;105090;1305;24264;-77
2022/10/28 01:53:40;;;;;;;8.10;6.10;;;;;;;10.64;96.52;97746.20;105123;1291;22513;-78
2022/10/28 01:56:17;;;;;;;8.30;5.40;;;;;;;10.60;96.82;97748.28;105133;1297;22970;-78
2022/10/28 01:58:50;;;;;;;7.90;4.10;;;;;;;10.57;96.92;97747.24;105064;1306;22912;-78
2022/10/28 02:01:24;;;;;;;10.20;5.30;;;;;;;10.58;97.26;97746.73;105106;1290;24263;-78
2022/10/28 02:03:56;;;;;;;9.20;5.70;;;;;;;10.58;97.36;97748.21;105111;1291;24254;-77
2022/10/28 02:06:32;;;;;;;8.10;6.20;;;;;;;10.58;97.32;97744.29;105116;1306;22463;-77
2022/10/28 02:09:20;;;;;;;8.30;5.70;;;;;;;10.61;97.64;97731.38;105231;1291;22519;-78
2022/10/28 02:12:17;;;;;;;9.60;5.80;;;;;;;10.63;97.57;97738.59;105280;1304;22476;-77
2022/10/28 02:15:18;;;;;;;9.50;5.50;;;;;;;10.60;97.21;97737.84;105253;1291;25377;-77
2022/10/28 02:18:12;;;;;;;6.80;5.00;;;;;;;10.61;97.47;97732.05;105049;1303;22479;-78
2022/10/28 02:20:51;;;;;;;7.50;5.40;;;;;;;10.63;97.56;97726.25;105111;1306;22546;-78
2022/10/28 02:23:37;;;;;;;6.50;5.50;;;;;;;10.69;97.71;97720.98;105094;1306;24420;-78
2022/10/28 02:26:15;;;;;;;8.00;4.50;;;;;;;10.77;97.59;97725.05;105099;1306;24317;-78
2022/10/28 02:28:55;;;;;;;9.80;4.90;;;;;;;10.78;97.32;97713.29;105120;1306;22673;-77
2022/10/28 02:31:30;;;;;;;8.30;4.20;;;;;;;10.83;97.24;97717.93;105114;1306;22531;-77
2022/10/28 02:34:06;;;;;;;9.10;5.80;;;;;;;10.89;97.09;97717.14;105173;1306;22566;-78
2022/10/28 02:36:56;;;;;;;6.10;4.80;;;;;;;10.90;96.65;97719.76;105115;1291;22477;-77
2022/10/28 02:39:32;;;;;;;6.70;4.50;;;;;;;10.89;96.40;97717.52;105212;1297;22786;-78
2022/10/28 02:42:07;;;;;;;6.80;4.70;;;;;;;10.87;96.28;97703.71;105183;1297;22537;-78
2022/10/28 02:44:44;;;;;;;6.50;4.40;;;;;;;10.91;96.16;97713.92;105249;1304;22729;-78
2022/10/28 02:47:18;;;;;;;7.00;4.60;;;;;;;10.87;95.83;97718.09;105125;1304;23264;-77
2022/10/28 02:49:56;;;;;;;9.00;4.50;;;;;;;10.83;95.83;97705.93;105157;1297;25374;-77
2022/10/28 02:52:32;;;;;;;6.80;4.80;;;;;;;10.83;95.84;97710.34;105178;1281;25395;-78
2022/10/28 02:55:05;;;;;;;8.50;4.40;;;;;;;10.80;95.65;97710.59;105232;1304;22477;-77
2022/10/28 02:57:39;;;;;;;7.00;4.80;;;;;;;10.84;95.71;97711.80;105112;1305;22485;-78
2022/10/28 03:00:15;;;;;;;6.50;3.00;;;;;;;10.86;95.41;97697.13;105111;1306;22498;-78
2022/10/28 03:02:46;;;;;;;5.90;3.30;;;;;;;10.89;95.37;97692.52;105120;1298;22461;-77
2022/10/28 03:05:18;;;;;;;7.00;5.10;;;;;;;10.97;95.00;97699.58;105138;1306;22549;-77
2022/10/28 03:07:50;;;;;;;6.40;4.90;;;;;;;10.96;94.58;97702.45;105146;1300;22788;-78
2022/10/28 03:10:20;;;;;;;7.10;4.40;;;;;;;10.90;94.36;97702.56;105196;1297;22505;-78
2022/10/28 03:12:52;;;;;;;6.40;3.00;;;;;;;10.85;94.34;97699.86;105153;1295;22494;-77
2022/10/28 03:15:23;;;;;;;6.10;3.80;;;;;;;10.88;94.43;97692.69;105183;1304;22502;-77
2022/10/28 03:17:53;;;;;;;8.50;4.90;;;;;;;10.89;94.15;97690.73;105091;1284;22493;-78
2022/10/28 03:20:25;;;;;;;8.10;4.40;;;;;;;10.84;93.92;97699.80;105112;1284;22482;-77
2022/10/28 03:22:56;;;;;;;7.20;4.30;;;;;;;10.79;93.93;97697.10;105122;1283;25876;-78
2022/10/28 03:25:27;;;;;;;7.00;4.70;;;;;;;10.79;93.93;97698.00;105148;1290;22462;-78
2022/10/28 03:27:59;;;;;;;8.20;4.50;;;;;;;10.78;93.81;97698.58;105186;1306;33867;-78
2022/10/28 03:30:30;;;;;;;5.90;3.70;;;;;;;10.75;93.88;97694.00;105185;1288;22578;-78
2022/10/28 03:33:01;;;;;;;6.10;4.00;;;;;;;10.87;93.98;97697.98;105233;1274;22477;-78
2022/10/28 03:35:32;;;;;;;6.20;4.30;;;;;;;10.93;93.72;97696.79;105118;1306;22557;-78
2022/10/28 03:38:03;;;;;;;5.50;3.70;;;;;;;10.97;93.38;97696.30;105240;1291;22519;-78
2022/10/28 03:40:34;;;;;;;5.70;4.10;;;;;;;10.99;93.05;97695.85;105160;1298;24649;-78
2022/10/28 03:43:05;;;;;;;4.80;3.60;;;;;;;10.96;92.81;97693.63;105247;1306;22606;-78
2022/10/28 03:45:36;;;;;;;4.90;3.80;;;;;;;10.93;92.69;97692.81;105137;1306;25885;-78
2022/10/28 03:48:08;;;;;;;5.10;4.20;;;;;;;10.91;92.59;97689.67;105152;1306;22489;-78
2022/10/28 03:50:39;;;;;;;7.70;4.10;;;;;;;10.88;92.57;97688.65;105149;1305;22944;-77
2022/10/28 03:53:10;;;;;;;6.00;3.80;;;;;;;10.89;92.57;97680.96;105163;1305;22470;-78
2022/10/28 03:55:41;;;;;;;5.70;3.70;;;;;;;10.89;92.48;97677.19;105024;1306;25947;-78
2022/10/28 03:58:12;;;;;;;5.70;4.00;;;;;;;10.89;92.41;97676.34;105133;1306;22520;-78
2022/10/28 04:00:43;;;;;;;5.80;4.00;;;;;;;10.87;92.29;97676.23;105121;1305;22577;-78
2022/10/28 04:03:14;;;;;;;8.50;4.70;;;;;;;10.84;92.32;97670.62;105158;1285;22573;-78
2022/10/28 04:05:47;;;;;;;5.80;3.80;;;;;;;10.83;92.46;97671.04;105086;1305;23186;-78
2022/10/28 04:08:19;;;;;;;7.30;4.10;;;;;;;10.82;92.46;97671.48;105215;1304;25373;-78
2022/10/28 04:10:50;;;;;;;8.70;4.80;;;;;;;10.83;92.41;97668.91;105229;1286;24258;-78
2022/10/28 04:13:21;;;;;;;7.00;4.10;;;;;;;10.79;92.18;97672.23;105155;1297;22462;-78
2022/10/28 04:15:52;;;;;;;5.10;3.30;;;;;;;10.72;92.30;97672.45;105141;1306;23884;-78
2022/10/28 04:18:23;;;;;;;5.40;3.70;;;;;;;10.67;92.46;97683.20;105144;1300;22482;-78
2022/10/28 04:20:55;;;;;;;5.40;3.40;;;;;;;10.67;92.63;97681.88;105159;1277;22794;-77
2022/10/28 04:23:26;;;;;;;6.10;4.50;;;;;;;10.69;92.66;97687.10;105120;1295;22642;-78
2022/10/28 04:25:57;;;;;;;5.80;3.30;;;;;;;10.67;92.47;97682.15;105063;1287;22473;-78
2022/10/28 04:28:29;;;;;;;7.10;4.30;;;;;;;10.67;92.58;97681.24;105108;1298;22483;-78
2022/10/28 04:31:01;;;;;;;5.50;3.80;;;;;;;10.65;92.38;97679.90;105140;1291;23660;-78
2022/10/28 04:33:33;;;;;;;5.60;3.60;;;;;;;10.64;92.45;97682.59;105136;1305;22573;-77
2022/10/28 04:36:04;;;;;;;5.70;3.80;;;;;;;10.65;92.63;97679.80;105060;1305;22535;-77
2022/10/28 04:38:37;;;;;;;7.30;3.80;;;;;;;10.64;92.40;97681.70;105122;1306;22876;-78
2022/10/28 04:41:08;;;;;;;7.10;4.40;;;;;;;10.57;92.24;97678.04;105122;1301;22469;-78
2022/10/28 04:43:40;;;;;;;6.20;3.80;;;;;;;10.51;92.30;97676.49;105105;1290;22496;-78
2022/10/28 04:46:11;;;;;;;5.50;3.70;;;;;;;10.49;92.55;97676.85;105093;1305;22556;-78
2022/10/28 04:48:42;;;;;;;6.80;4.00;;;;;;;10.49;92.65;97670.80;105250;1304;22623;-78
2022/10/28 04:51:14;;;;;;;4.50;3.40;;;;;;;10.51;92.89;97668.21;105196;1297;25306;-78
2022/10/28 04:53:45;;;;;;;4.80;3.60;;;;;;;10.54;92.85;97671.73;105197;1300;22979;-78
2022/10/28 04:56:16;;;;;;;4.80;3.50;;;;;;;10.56;92.93;97666.36;105142;1306;22779;-78
2022/10/28 04:58:48;;;;;;;5.20;2.90;;;;;;;10.58;92.94;97668.71;105227;1297;22459;-78
2022/10/28 05:01:20;;;;;;;6.40;2.90;;;;;;;10.57;92.88;97670.30;105152;1306;22623;-78
2022/10/28 05:03:51;;;;;;;6.10;4.60;;;;;;;10.55;92.97;97669.64;105265;1304;25407;-77
2022/10/28 05:06:22;;;;;;;5.10;4.60;;;;;;;10.55;93.01;97674.09;105113;1295;24258;-78
2022/10/28 05:08:53;;;;;;;5.30;4.10;;;;;;;10.57;93.02;97671.05;105230;1306;25895;-78
2022/10/28 05:11:25;;;;;;;4.00;2.90;;;;;;;10.57;93.09;97672.94;105179;1305;22483;-77
2022/10/28 05:13:56;;;;;;;4.70;2.80;;;;;;;10.63;93.37;97672.30;105222;1306;22484;-78
2022/10/28 05:16:29;;;;;;;6.40;4.20;;;;;;;10.70;93.33;97670.04;105170;1285;23120;-78
2022/10/28 05:19:01;;;;;;;5.20;3.90;;;;;;;10.72;93.11;97671.70;105236;1288;22757;-78
2022/10/28 05:21:32;;;;;;;5.00;3.40;;;;;;;10.72;93.09;97666.77;105227;1282;22796;-78
2022/10/28 05:24:07;;;;;;;5.70;3.90;;;;;;;10.76;93.19;97665.95;105199;1292;23758;-78
2022/10/28 05:26:38;;;;;;;7.00;3.90;;;;;;;10.79;93.07;97663.69;105202;1294;22512;-78
2022/10/28 05:29:10;;;;;;;6.20;4.70;;;;;;;10.78;92.82;97659.96;105232;1291;22487;-78
2022/10/28 05:31:41;;;;;;;7.70;3.30;;;;;;;10.77;92.87;97661.86;105187;1278;23091;-78
2022/10/28 05:34:13;;;;;;;5.10;3.60;;;;;;;10.81;92.79;97652.92;105233;1282;22470;-79
2022/10/28 05:36:44;;;;;;;6.40;3.70;;;;;;;10.83;92.66;97658.23;105149;1297;22487;-78
2022/10/28 05:39:15;;;;;;;6.30;4.00;;;;;;;10.84;92.48;97660.91;105118;1305;22480;-79
2022/10/28 05:41:46;;;;;;;5.10;3.40;;;;;;;10.87;92.35;97654.52;105102;1291;24430;-78
2022/10/28 05:44:17;;;;;;;5.10;3.40;;;;;;;11.00;92.18;97660.66;105147;1306;22510;-79
2022/10/28 05:46:49;;;;;;;4.80;3.10;;;;;;;11.19;91.98;97664.88;105130;1291;25375;-79
2022/10/28 05:49:20;;;;;;;5.40;3.60;;;;;;;11.48;91.30;97667.55;105142;1306;22511;-79
2022/10/28 05:51:51;;;;;;;4.30;3.50;;;;;;;11.88;90.43;97665.14;105169;1300;22552;-78
2022/10/28 05:54:22;;;;;;;3.90;3.20;;;;;;;12.01;89.10;97665.89;105145;1306;22917;-79
2022/10/28 05:56:53;;;;;;;4.80;3.10;;;;;;;12.00;88.48;97668.71;105145;1288;24507;-79
2022/10/28 05:59:25;;;;;;;4.60;3.10;;;;;;;11.98;87.85;97679.34;105226;1304;22510;-78
2022/10/28 06:01:56;;;;;;;3.80;3.20;;;;;;;12.02;87.45;97678.13;105219;1306;22864;-78
2022/10/28 06:04:27;;;;;;;5.90;3.40;;;;;;;12.14;87.16;97684.70;105111;1306;25385;-78
2022/10/28 06:06:58;;;;;;;4.70;2.90;;;;;;;12.28;86.54;97675.38;105080;1306;22608;-78
2022/10/28 06:09:30;;;;;;;4.30;3.30;;;;;;;12.39;86.08;97673.95;105135;1301;22515;-78
2022/10/28 06:12:01;;;;;;;5.30;2.60;;;;;;;12.62;85.32;97665.06;105125;1291;22515;-78
2022/10/28 06:14:35;;;;;;;5.10;2.80;;;;;;;12.74;84.07;97664.73;105118;1284;22466;-79
2022/10/28 06:17:06;;;;;;;5.90;2.70;;;;;;;12.79;83.74;97671.12;105204;1306;23438;-79
2022/10/28 06:19:38;;;;;;;5.00;2.70;;;;;;;12.91;83.33;97671.44;105242;1290;23068;-77
2022/10/28 06:22:09;;;;;;;5.80;3.60;;;;;;;12.90;82.06;97666.70;105185;1288;22480;-79
2022/10/28 06:24:41;;;;;;;3.80;3.00;;;;;;;12.84;82.13;97671.02;105191;1305;22589;-79
2022/10/28 06:27:12;;;;;;;4.30;3.10;;;;;;;12.93;82.35;97679.06;105120;1306;24305;-80
2022/10/28 06:29:45;;;;;;;4.20;2.90;;;;;;;13.15;82.48;97675.11;105150;1285;22479;-79
2022/10/28 06:32:16;;;;;;;5.30;2.90;;;;;;;13.39;81.69;97681.23;105080;1295;22487;-80
2022/10/28 06:34:49;;;;;;;4.00;2.60;;;;;;;13.68;80.78;97679.77;105095;1306;22598;-79
2022/10/28 06:37:23;;;;;;;4.30;3.00;;;;;;;13.82;80.22;97684.98;105133;1290;22493;-80
2022/10/28 06:39:57;;;;;;;4.10;2.70;;;;;;;14.14;80.14;97683.89;105258;1299;22588;-79
2022/10/28 06:42:28;;;;;;;4.90;3.00;;;;;;;14.45;78.79;97684.22;105196;1293;22513;-80
2022/10/28 06:44:59;;;;;;;5.00;2.70;;;;;;;14.77;78.87;97683.80;105284;1297;22474;-79
2022/10/28 06:47:30;;;;;;;5.10;2.50;;;;;;;15.17;77.58;97683.89;105085;1306;25811;-79
2022/10/28 06:50:15;;;;;;;3.70;2.60;;;;;;;15.38;75.47;97679.59;107308;1267;22291;31
2022/10/28 06:52:46;;;;;;;6.00;2.50;;;;;;;15.52;74.80;97681.16;104981;1306;25590;-83
2022/10/28 06:55:18;;;;;;;4.60;2.70;;;;;;;15.74;74.14;97684.89;104973;1298;24303;-82
2022/10/28 06:57:49;;;;;;;2.80;2.10;;;;;;;16.32;74.36;97674.58;104940;1305;22488;-82
2022/10/28 07:00:22;;;;;;;4.00;2.60;;;;;;;16.73;71.90;97676.85;104945;1306;22520;-82
2022/10/28 07:03:02;;;;;;;3.70;2.30;;;;;;;16.73;71.22;97677.23;104827;1287;22492;-81
2022/10/28 07:05:33;;;;;;;5.80;2.40;;;;;;;16.54;69.30;97668.94;104892;1293;25324;-81
2022/10/28 07:08:04;;;;;;;5.60;2.40;;;;;;;16.51;70.77;97673.90;104787;1308;22516;-82
2022/10/28 07:10:35;;;;;;;3.40;2.30;;;;;;;16.78;69.08;97677.10;104912;1300;22473;-82
2022/10/28 07:13:07;;;;;;;4.50;2.30;;;;;;;17.25;69.34;97683.04;104745;1294;22810;-81
2022/10/28 07:15:38;;;;;;;4.60;2.10;;;;;;;17.69;68.18;97684.77;104982;1306;22486;-81
2022/10/28 07:18:10;;;;;;;4.00;2.10;;;;;;;18.08;66.91;97683.55;105028;1300;22487;-82
2022/10/28 07:20:41;;;;;;;5.80;2.30;;;;;;;18.87;67.59;97693.75;105074;1288;24136;-81
2022/10/28 07:23:12;;;;;;;3.20;2.10;;;;;;;19.52;65.40;97692.29;104969;1301;22534;-82
2022/10/28 07:25:44;;;;;;;3.30;2.10;;;;;;;19.47;62.72;97692.29;104891;1307;22516;-82
2022/10/28 07:28:15;;;;;;;2.80;2.10;;;;;;;19.50;62.13;97691.44;104952;1301;22479;-82
2022/10/28 07:30:46;;;;;;;4.70;2.40;;;;;;;19.55;62.49;97688.62;104965;1300;22479;-82
2022/10/28 07:33:17;;;;;;;4.00;2.20;;;;;;;19.72;60.78;97689.44;104887;1290;27497;-82
2022/10/28 07:35:49;;;;;;;4.50;2.50;;;;;;;19.47;61.25;97695.06;104925;1301;24308;-81
2022/10/28 07:38:20;;;;;;;3.40;2.30;;;;;;;19.04;60.47;97693.19;104891;1307;22469;-82
2022/10/28 07:40:51;;;;;;;4.10;2.60;;;;;;;18.94;61.67;97692.96;104881;1307;22544;-81
2022/10/28 07:43:22;;;;;;;5.90;2.70;;;;;;;18.79;61.58;97693.52;104885;1291;25340;-82
2022/10/28 07:45:58;;;;;;;3.60;2.50;;;;;;;18.61;61.96;97686.84;104905;1293;22589;-82
2022/10/28 07:48:29;;;;;;;3.70;2.70;;;;;;;18.70;62.46;97688.64;104939;1277;22475;-82
2022/10/28 07:51:04;;;;;;;4.70;3.00;;;;;;;19.03;62.86;97687.20;104939;1295;22486;-81
2022/10/28 07:53:36;;;;;;;5.60;2.80;;;;;;;19.48;62.19;97685.34;104906;1307;22573;-82
2022/10/28 07:56:12;;;;;;;5.70;3.10;;;;;;;19.76;60.76;97685.18;104800;1303;22490;-82
2022/10/28 07:58:44;;;;;;;4.40;2.20;;;;;;;19.86;60.18;97690.66;104945;1296;22474;-82
2022/10/28 08:01:18;;;;;;;5.40;2.60;;;;;;;19.74;59.03;97693.52;104899;1294;25235;-82
2022/10/28 08:03:49;;;;;;;4.80;2.60;;;;;;;19.74;59.66;97690.20;104921;1293;22474;-82
2022/10/28 08:06:21;;;;;;;3.70;2.80;;;;;;;19.78;59.91;97691.58;104970;1307;22469;-81
2022/10/28 08:08:56;;;;;;;3.70;2.60;;;;;;;20.03;60.39;97687.83;104939;1298;22474;-82
2022/10/28 08:11:27;;;;;;;4.20;2.60;;;;;;;20.36;59.64;97690.45;104915;1286;22468;-82
2022/10/28 08:14:00;;;;;;;5.20;2.30;;;;;;;20.21;58.30;97686.32;104924;1309;22555;-81
2022/10/28 08:16:32;;;;;;;3.90;2.70;;;;;;;19.97;58.90;97682.40;104869;1309;22533;-82
2022/10/28 08:19:03;;;;;;;3.80;2.40;;;;;;;20.07;59.16;97680.36;104880;1287;22479;-81
2022/10/28 08:21:34;;;;;;;6.60;2.70;;;;;;;20.08;59.05;97679.63;104779;1299;22598;-81
2022/10/28 08:24:05;;;;;;;6.50;2.80;;;;;;;20.00;58.97;97674.83;104911;1299;22475;-81
2022/10/28 08:26:36;;;;;;;5.00;2.50;;;;;;;19.37;59.41;97677.77;104987;1299;23230;-81
2022/10/28 08:29:07;;;;;;;5.10;2.80;;;;;;;18.83;59.79;97679.95;104950;1309;25103;-81
2022/10/28 08:31:38;;;;;;;4.50;2.80;;;;;;;18.40;60.97;97685.10;104894;1308;28785;-81
2022/10/28 08:34:10;;;;;;;3.40;1.90;;;;;;;18.08;61.45;97677.49;104964;1287;22475;-82
2022/10/28 08:36:41;;;;;;;4.20;2.60;;;;;;;17.55;62.82;97675.84;104858;1303;22958;-82
2022/10/28 08:39:12;;;;;;;4.00;2.70;;;;;;;17.52;63.89;97674.19;104972;1308;24260;-82
2022/10/28 08:41:50;;;;;;;5.50;3.00;;;;;;;17.54;64.34;97678.22;104909;1306;25853;-81
2022/10/28 08:44:53;;;;;;;5.50;2.60;;;;;;;17.47;64.33;97685.06;104822;1308;22489;-82
2022/10/28 08:47:35;;;;;;;4.90;3.20;;;;;;;17.26;64.58;97677.92;104963;1303;22468;-82
2022/10/28 08:50:14;;;;;;;4.10;3.00;;;;;;;17.13;65.16;97676.59;104963;1287;25273;-82
2022/10/28 08:52:54;;;;;;;5.10;2.90;;;;;;;17.02;65.85;97668.37;104716;1283;22493;-82
2022/10/28 08:55:30;;;;;;;6.40;3.00;;;;;;;16.94;66.53;97668.45;104908;1297;22469;-83
2022/10/28 08:58:07;;;;;;;5.60;3.00;;;;;;;16.92;66.74;97668.16;104890;1291;22491;-83
2022/10/28 09:00:40;;;;;;;4.30;2.90;;;;;;;16.80;67.11;97667.27;104875;1290;22475;-83
2022/10/28 09:03:21;;;;;;;4.40;2.80;;;;;;;16.73;67.70;97665.98;104894;1309;22486;-83
2022/10/28 09:06:03;;;;;;;5.70;2.70;;;;;;;16.78;67.99;97665.13;104984;1299;22561;-83
2022/10/28 09:08:39;;;;;;;4.30;2.80;;;;;;;16.82;68.19;97668.59;104986;1306;25242;-83
2022/10/28 09:11:31;;;;;;;5.50;2.20;;;;;;;16.87;68.55;97662.23;104961;1301;22449;-83
2022/10/28 09:14:16;;;;;;;8.30;4.20;;;;;;;17.00;68.47;97659.33;104943;1309;25366;-84
2022/10/28 09:17:17;;;;;;;5.00;2.90;;;;;;;17.01;68.34;97656.64;104918;1308;24270;-83
2022/10/28 09:20:17;;;;;;;6.70;3.60;;;;;;;17.12;68.29;97651.59;104887;1309;22479;-84
2022/10/28 09:22:56;;;;;;;3.90;2.40;;;;;;;17.18;68.52;97649.34;104858;1309;22528;-83
2022/10/28 09:25:53;;;;;;;4.70;2.50;;;;;;;17.26;67.85;97649.03;104915;1306;22474;-85
2022/10/28 09:28:41;;;;;;;5.10;3.10;;;;;;;17.32;68.21;97647.44;104891;1303;23138;-84
2022/10/28 09:31:20;;;;;;;3.90;2.80;;;;;;;17.34;67.94;97641.52;104895;1308;22462;-84
2022/10/28 09:34:08;;;;;;;3.60;2.60;;;;;;;17.37;68.25;97639.61;104858;1309;24290;-84
2022/10/28 09:37:01;;;;;;;4.20;2.60;;;;;;;17.50;67.78;97639.85;105204;1309;22517;-84
2022/10/28 09:39:41;;;;;;;4.20;2.70;;;;;;;17.55;67.39;97640.65;105241;1294;22649;-84
2022/10/28 09:42:18;;;;;;;3.50;3.00;;;;;;;17.64;67.24;97639.85;105127;1303;22507;-84
2022/10/28 09:44:54;;;;;;;6.30;2.80;;;;;;;17.72;67.36;97639.66;105236;1307;22645;-84
2022/10/28 09:47:30;;;;;;;4.60;2.60;;;;;;;17.83;66.84;97645.95;105212;1293;22476;-85
2022/10/28 09:50:07;;;;;;;4.10;2.80;;;;;;;17.87;66.70;97641.73;104946;1294;22510;-85
2022/10/28 09:53:04;;;;;;;3.80;2.20;;;;;;;17.90;66.74;97641.63;105149;1299;22946;-84
2022/10/28 09:55:35;;;;;;;4.70;2.90;;;;;;;17.99;66.63;97640.66;105148;1293;22471;-84
2022/10/28 09:58:07;;;;;;;4.30;2.60;;;;;;;18.01;66.30;97638.91;104874;1301;22514;-84
2022/10/28 10:00:38;;;;;;;4.60;2.40;;;;;;;18.09;66.58;97639.50;105155;1281;22494;-84
2022/10/28 10:03:10;;;;;;;4.40;2.60;;;;;;;18.21;66.75;97631.78;104979;1288;22547;-83
2022/10/28 10:05:46;;;;;;;5.00;2.60;;;;;;;18.25;66.22;97633.55;104983;1306;22600;-83
2022/10/28 10:08:21;;;;;;;4.20;2.50;;;;;;;18.28;65.82;97632.41;105012;1306;24306;-84
2022/10/28 10:10:56;;;;;;;5.40;2.70;;;;;;;18.35;65.85;97633.17;104968;1306;22503;-84
2022/10/28 10:13:33;;;;;;;3.60;2.80;;;;;;;18.48;65.99;97636.86;104916;1302;22513;-84
2022/10/28 10:16:12;;;;;;;5.40;3.10;;;;;;;18.58;65.85;97640.59;104996;1294;22480;-84
2022/10/28 10:18:47;;;;;;;5.00;3.00;;;;;;;18.65;65.26;97639.82;104972;1306;24331;-84
2022/10/28 10:21:20;;;;;;;5.10;3.00;;;;;;;18.61;65.05;97638.73;105279;1294;22525;-84
2022/10/28 10:23:51;;;;;;;8.00;3.10;;;;;;;18.65;65.06;97631.37;104871;1299;22485;-84
2022/10/28 10:26:22;;;;;;;4.60;2.70;;;;;;;18.72;65.33;97628.90;104916;1300;23953;-83
2022/10/28 10:29:13;;;;;;;4.20;2.60;;;;;;;18.86;65.38;97627.48;104934;1307;22538;-83
2022/10/28 10:32:18;;;;;;;5.70;2.70;;;;;;;19.01;64.75;97625.29;104869;1301;24380;-83
2022/10/28 10:34:56;;;;;;;4.30;3.00;;;;;;;19.08;65.06;97623.93;104911;1301;22614;-83
2022/10/28 10:37:29;;;;;;;4.80;2.30;;;;;;;19.18;64.48;97621.31;104878;1309;22498;-83
2022/10/28 10:40:17;;;;;;;4.50;2.70;;;;;;;19.12;64.30;97626.06;104913;1291;22491;-83
2022/10/28 10:42:48;;;;;;;8.30;2.80;;;;;;;19.17;64.84;97621.59;104877;1308;22478;-83
2022/10/28 10:45:24;;;;;;;4.40;2.80;;;;;;;19.28;64.01;97626.85;104915;1300;22713;-84
2022/10/28 10:48:17;;;;;;;5.80;3.20;;;;;;;19.13;63.21;97628.80;104910;1291;22484;-84
2022/10/28 10:51:17;;;;;;;5.80;2.90;;;;;;;19.08;63.84;97628.80;104897;1290;24561;-83
2022/10/28 10:53:52;;;;;;;5.90;3.00;;;;;;;19.12;63.85;97627.63;104829;1289;25323;-84
2022/10/28 10:56:28;;;;;;;6.30;3.70;;;;;;;19.17;63.57;97625.58;104924;1288;22485;-84
2022/10/28 10:59:03;;;;;;;3.90;2.70;;;;;;;19.16;63.89;97627.91;105152;1307;22518;-84
2022/10/28 11:01:38;;;;;;;4.60;3.00;;;;;;;19.22;63.33;97626.95;105130;1309;22490;-84
2022/10/28 11:04:16;;;;;;;5.70;2.90;;;;;;;19.24;63.43;97616.55;104902;1309;24274;-85
2022/10/28 11:06:53;;;;;;;8.80;3.20;;;;;;;19.36;64.10;97616.45;105235;1290;22499;-84
2022/10/28 11:09:42;;;;;;;4.70;2.60;;;;;;;19.51;62.75;97612.08;104682;1291;22479;-83
2022/10/28 11:12:24;;;;;;;6.40;2.90;;;;;;;19.65;63.18;97607.64;104726;1291;22911;-82
2022/10/28 11:15:01;;;;;;;4.30;2.60;;;;;;;19.80;62.75;97609.56;104905;1309;22591;-80
2022/10/28 11:17:34;;;;;;;7.00;3.30;;;;;;;19.82;62.67;97607.45;104860;1301;22523;-80
2022/10/28 11:20:28;;;;;;;4.60;2.90;;;;;;;19.92;62.66;97609.34;104888;1309;22581;-81
2022/10/28 11:23:18;;;;;;;6.20;3.00;;;;;;;19.94;61.68;97610.06;104904;1306;22578;-82
2022/10/28 11:26:10;;;;;;;4.60;2.80;;;;;;;20.03;62.30;97610.48;104963;1297;22497;-81
2022/10/28 11:29:07;;;;;;;5.30;2.90;;;;;;;20.11;61.23;97603.43;105004;1290;22611;-82
2022/10/28 11:32:16;;;;;;;4.10;2.60;;;;;;;20.18;60.93;97599.52;104951;1306;22477;-83
2022/10/28 11:35:26;;;;;;;4.80;2.80;;;;;;;20.34;61.41;97592.55;104934;1292;24479;-83
2022/10/28 11:38:34;;;;;;;6.30;2.60;;;;;;;20.50;60.87;97587.54;104932;1290;25468;-83
2022/10/28 11:41:20;;;;;;;4.20;2.20;;;;;;;20.67;61.01;97587.36;104977;1306;22582;-83
2022/10/28 11:43:55;;;;;;;5.20;2.40;;;;;;;20.93;60.03;97584.59;104775;1290;27900;-84
2022/10/28 11:46:55;;;;;;;4.40;2.80;;;;;;;21.01;58.87;97577.71;104933;1284;25946;-82
2022/10/28 11:50:14;;;;;;;2.70;2.10;;;;;;;21.08;58.72;97580.27;105074;1291;22499;-82
2022/10/28 11:53:22;;;;;;;4.60;2.70;;;;;;;21.10;57.89;97578.13;104753;1290;22604;-82
2022/10/28 11:56:03;;;;;;;6.40;2.60;;;;;;;20.99;57.90;97576.89;104931;1292;21721;-83
2022/10/28 11:58:43;;;;;;;6.30;2.40;;;;;;;20.89;58.16;97576.19;105022;1302;22576;-83
2022/10/28 12:01:40;;;;;;;3.20;2.30;;;;;;;20.83;58.18;97572.20;105085;1293;22485;-83
2022/10/28 12:04:48;;;;;;;5.00;2.80;;;;;;;20.89;58.03;97571.42;105009;1309;25358;-83
2022/10/28 12:07:44;;;;;;;4.90;2.10;;;;;;;20.97;56.63;97571.12;104739;1300;22540;-82